Time;durP1;ratioP1;P1;durP2;ratioP2;P2;SDS_P1;SDS_P2;PMS_P1;PMS_P2;Temp;Humidity;BMP_temperature;BMP_pressure;BME280_temperature;BME280_humidity;BME280_pressure;Samples;Min_cycle;Max_cycle;Signal;HPM_P1;HPM_P2
2023/07/26 00:00:53;;;;;;;23.33;12.80;;;14.40;85.60;;;;;;5064667;28;20251;-76
2023/07/26 00:03:18;;;;;;;22.73;12.40;;;14.40;85.70;;;;;;5074522;28;20192;-76
2023/07/26 00:05:44;;;;;;;25.03;14.20;;;14.40;86.00;;;;;;5069891;28;20438;-75
2023/07/26 00:08:10;;;;;;;23.70;12.90;;;14.40;85.90;;;;;;5063792;28;20246;-75
2023/07/26 00:10:35;;;;;;;27.00;13.30;;;14.40;85.90;;;;;;5058936;28;20212;-74
2023/07/26 00:13:01;;;;;;;25.30;13.67;;;14.50;86.20;;;;;;5064511;28;20266;-76
2023/07/26 00:15:27;;;;;;;26.43;12.77;;;14.40;86.20;;;;;;5066083;28;20229;-75
2023/07/26 00:17:52;;;;;;;26.30;12.90;;;14.50;86.20;;;;;;5072532;28;20198;-75
2023/07/26 00:20:18;;;;;;;25.73;12.87;;;14.50;86.00;;;;;;5062375;28;20227;-74
2023/07/26 00:22:43;;;;;;;22.70;13.40;;;14.50;86.00;;;;;;5071814;28;20215;-75
2023/07/26 00:25:09;;;;;;;30.43;15.17;;;14.50;85.60;;;;;;5067398;28;20183;-75
2023/07/26 00:27:35;;;;;;;24.50;12.80;;;14.50;86.00;;;;;;5065512;28;20191;-75
2023/07/26 00:30:00;;;;;;;31.93;13.60;;;14.60;86.00;;;;;;5067752;28;20220;-73
2023/07/26 00:32:26;;;;;;;24.57;13.17;;;14.60;86.00;;;;;;5070659;28;20211;-73
2023/07/26 00:34:52;;;;;;;24.30;13.50;;;14.60;86.00;;;;;;5070054;28;20789;-73
2023/07/26 00:37:17;;;;;;;23.07;12.30;;;14.70;85.50;;;;;;5064479;28;20202;-73
2023/07/26 00:39:43;;;;;;;25.53;13.10;;;14.70;85.50;;;;;;5066445;28;20184;-74
2023/07/26 00:42:09;;;;;;;25.40;13.10;;;14.70;85.30;;;;;;5063790;28;20192;-73
2023/07/26 00:44:35;;;;;;;24.20;13.70;;;14.70;85.20;;;;;;5071747;28;20431;-74
2023/07/26 00:47:00;;;;;;;24.33;13.57;;;14.80;84.90;;;;;;5070751;28;20290;-73
2023/07/26 00:49:26;;;;;;;22.57;12.87;;;14.80;84.60;;;;;;5069769;28;20249;-73
2023/07/26 00:51:52;;;;;;;18.87;11.43;;;14.80;84.70;;;;;;5062039;28;20298;-74
2023/07/26 00:54:21;;;;;;;27.20;14.37;;;14.90;84.60;;;;;;5067914;28;20667;-72
2023/07/26 00:56:46;;;;;;;23.37;12.93;;;14.80;84.40;;;;;;5071662;28;20219;-71
2023/07/26 00:59:12;;;;;;;21.43;11.50;;;14.90;84.10;;;;;;5070410;28;20477;-73
2023/07/26 01:01:39;;;;;;;20.70;12.07;;;14.90;84.10;;;;;;5063587;28;20268;-74
2023/07/26 01:04:05;;;;;;;31.03;12.13;;;14.90;84.00;;;;;;5063523;28;20191;-73
2023/07/26 01:06:46;;;;;;;23.50;12.20;;;14.90;83.70;;;;;;5065429;28;20521;-73
2023/07/26 01:09:31;;;;;;;22.67;12.90;;;14.90;83.40;;;;;;5069573;28;20278;-73
2023/07/26 01:12:26;;;;;;;22.53;12.20;;;14.80;83.40;;;;;;5073641;28;20465;-73
2023/07/26 01:14:56;;;;;;;18.30;10.40;;;14.80;83.00;;;;;;5064457;28;20448;-73
2023/07/26 01:17:22;;;;;;;24.80;10.33;;;14.80;83.00;;;;;;5070422;28;20482;-72
2023/07/26 01:19:47;;;;;;;11.53;7.83;;;14.80;83.00;;;;;;5066383;28;20442;-72
2023/07/26 01:22:13;;;;;;;13.30;8.30;;;14.70;80.80;;;;;;5066154;28;20559;-72
2023/07/26 01:24:38;;;;;;;16.87;10.00;;;14.60;79.30;;;;;;5064399;28;20213;-72
2023/07/26 01:27:04;;;;;;;16.70;10.13;;;14.70;80.60;;;;;;5069529;28;20191;-72
2023/07/26 01:29:30;;;;;;;20.20;9.37;;;14.80;81.70;;;;;;5072766;28;20191;-72
2023/07/26 01:31:56;;;;;;;14.70;7.87;;;14.80;82.20;;;;;;5065439;28;20465;-72
2023/07/26 01:34:22;;;;;;;16.33;8.57;;;14.60;82.70;;;;;;5068404;28;20301;-72
2023/07/26 01:36:51;;;;;;;14.83;8.60;;;14.50;81.50;;;;;;5074191;28;20195;-74
2023/07/26 01:39:18;;;;;;;17.90;8.13;;;14.30;82.10;;;;;;5068798;28;20442;-73
2023/07/26 01:41:45;;;;;;;14.47;9.40;;;14.30;83.00;;;;;;5069606;28;20511;-73
2023/07/26 01:44:12;;;;;;;19.40;8.13;;;14.30;83.70;;;;;;5075052;28;20492;-73
2023/07/26 01:46:37;;;;;;;14.50;8.00;;;14.20;84.00;;;;;;5075533;28;20438;-73
2023/07/26 01:49:03;;;;;;;18.13;8.60;;;14.20;83.80;;;;;;5075319;28;20453;-72
2023/07/26 01:51:29;;;;;;;12.40;7.80;;;14.10;84.10;;;;;;5061152;28;20556;-73
2023/07/26 01:53:54;;;;;;;19.67;8.27;;;14.10;83.80;;;;;;5073621;28;20302;-73
2023/07/26 01:56:20;;;;;;;12.67;7.97;;;14.10;83.40;;;;;;5068357;28;20238;-72
2023/07/26 01:58:46;;;;;;;12.40;7.70;;;14.20;83.40;;;;;;5073906;28;20233;-72
2023/07/26 02:01:11;;;;;;;11.83;7.30;;;14.20;83.00;;;;;;5064546;28;20212;-73
2023/07/26 02:03:37;;;;;;;12.87;8.80;;;14.20;83.10;;;;;;5072974;28;20654;-73
2023/07/26 02:06:03;;;;;;;14.80;6.73;;;14.20;82.70;;;;;;5073446;28;20223;-73
2023/07/26 02:08:28;;;;;;;10.10;7.27;;;14.20;83.10;;;;;;5074051;28;20194;-74
2023/07/26 02:10:54;;;;;;;11.53;7.00;;;14.20;83.30;;;;;;5066074;28;20207;-72
2023/07/26 02:13:19;;;;;;;10.40;6.33;;;14.20;83.30;;;;;;5076192;28;20698;-73
2023/07/26 02:15:46;;;;;;;11.07;7.40;;;14.20;83.10;;;;;;5075706;28;20206;-73
2023/07/26 02:18:13;;;;;;;10.13;6.77;;;14.10;82.80;;;;;;5076723;28;20257;-72
2023/07/26 02:20:38;;;;;;;11.83;6.70;;;14.10;83.00;;;;;;5067308;28;20470;-72
2023/07/26 02:23:04;;;;;;;14.33;7.03;;;14.10;83.10;;;;;;5073994;28;20449;-74
2023/07/26 02:25:30;;;;;;;11.27;6.80;;;14.10;83.00;;;;;;5066042;28;20189;-74
2023/07/26 02:27:56;;;;;;;10.23;6.10;;;14.10;83.00;;;;;;5071076;28;20450;-74
2023/07/26 02:30:21;;;;;;;9.23;6.60;;;14.10;82.50;;;;;;5065591;28;20197;-71
2023/07/26 02:32:47;;;;;;;13.30;6.10;;;14.10;82.40;;;;;;5066100;28;20273;-72
2023/07/26 02:35:13;;;;;;;9.50;6.00;;;14.10;82.10;;;;;;5072154;28;20633;-72
2023/07/26 02:37:38;;;;;;;11.53;6.13;;;14.10;81.80;;;;;;5071729;28;20191;-72
2023/07/26 02:40:04;;;;;;;8.67;5.60;;;14.10;81.70;;;;;;5062355;28;20211;-71
2023/07/26 02:42:30;;;;;;;12.93;6.13;;;14.10;81.90;;;;;;5061826;28;20191;-72
2023/07/26 02:44:56;;;;;;;9.97;6.33;;;14.00;82.40;;;;;;5069570;28;20428;-70
2023/07/26 02:47:21;;;;;;;14.33;6.90;;;14.00;82.80;;;;;;5072736;28;20191;-71
2023/07/26 02:49:47;;;;;;;13.50;6.50;;;14.00;83.00;;;;;;5072734;28;20275;-71
2023/07/26 02:52:12;;;;;;;8.47;6.33;;;14.00;83.40;;;;;;5073667;28;20180;-73
2023/07/26 02:54:38;;;;;;;7.50;5.90;;;14.00;83.10;;;;;;5078424;28;20275;-73
2023/07/26 02:57:04;;;;;;;8.93;5.87;;;14.10;82.80;;;;;;5078132;28;20184;-73
2023/07/26 02:59:30;;;;;;;12.00;6.23;;;14.10;82.10;;;;;;5078776;28;20191;-72
2023/07/26 03:01:55;;;;;;;8.43;6.23;;;14.20;81.90;;;;;;5069066;28;20454;-72
2023/07/26 03:04:21;;;;;;;7.47;5.30;;;14.20;81.80;;;;;;5070544;28;20209;-73
2023/07/26 03:06:47;;;;;;;10.40;6.70;;;14.20;82.10;;;;;;5072245;28;20188;-71
2023/07/26 03:09:12;;;;;;;12.97;6.90;;;14.20;82.10;;;;;;5068480;28;20180;-73
2023/07/26 03:11:38;;;;;;;14.10;7.83;;;14.20;82.50;;;;;;5062982;28;20714;-72
2023/07/26 03:14:03;;;;;;;10.00;6.07;;;14.30;82.20;;;;;;5070793;28;20218;-72
2023/07/26 03:16:29;;;;;;;10.70;6.30;;;14.20;82.70;;;;;;5068407;28;20263;-72
2023/07/26 03:18:56;;;;;;;11.20;7.27;;;14.20;82.70;;;;;;5070851;28;20262;-71
2023/07/26 03:21:21;;;;;;;11.60;6.43;;;14.20;82.50;;;;;;5066842;28;21005;-73
2023/07/26 03:23:47;;;;;;;10.50;6.10;;;14.10;82.70;;;;;;5071538;28;20232;-75
2023/07/26 03:26:13;;;;;;;12.57;6.30;;;14.10;83.00;;;;;;5071389;28;20190;-73
2023/07/26 03:28:39;;;;;;;10.30;6.30;;;14.10;82.80;;;;;;5071418;28;20655;-73
2023/07/26 03:31:05;;;;;;;10.90;6.97;;;14.00;83.10;;;;;;5063394;28;20461;-74
2023/07/26 03:33:30;;;;;;;11.53;6.13;;;14.00;83.40;;;;;;5067027;28;21017;-75
2023/07/26 03:35:56;;;;;;;11.53;6.47;;;13.90;83.80;;;;;;5064916;28;20278;-72
2023/07/26 03:38:21;;;;;;;14.50;7.63;;;13.90;84.10;;;;;;5070663;28;20198;-71
2023/07/26 03:40:47;;;;;;;14.47;6.23;;;13.90;84.10;;;;;;5064488;28;20333;-72
2023/07/26 03:43:13;;;;;;;10.93;6.30;;;13.80;83.80;;;;;;5067338;28;20184;-72
2023/07/26 03:45:38;;;;;;;11.70;6.97;;;13.80;84.00;;;;;;5065568;28;20191;-71
2023/07/26 03:48:04;;;;;;;12.57;6.70;;;13.80;84.10;;;;;;5070655;28;20211;-72
2023/07/26 03:50:30;;;;;;;11.70;6.57;;;13.80;84.30;;;;;;5063556;28;20215;-75
2023/07/26 03:52:55;;;;;;;10.20;6.83;;;13.60;84.60;;;;;;5070371;28;20219;-72
2023/07/26 03:55:21;;;;;;;13.00;6.67;;;13.60;85.20;;;;;;5070998;28;20549;-74
2023/07/26 03:57:46;;;;;;;8.40;6.30;;;13.60;85.20;;;;;;5072150;28;20196;-74
2023/07/26 04:00:13;;;;;;;10.23;7.00;;;13.60;85.30;;;;;;5066873;28;20212;-73
2023/07/26 04:02:38;;;;;;;10.83;6.50;;;13.60;84.90;;;;;;5071252;28;20272;-73
2023/07/26 04:05:06;;;;;;;10.80;6.93;;;13.60;85.30;;;;;;5071264;28;20480;-72
2023/07/26 04:07:34;;;;;;;8.73;6.00;;;13.60;85.50;;;;;;5071164;28;20207;-73
2023/07/26 04:10:00;;;;;;;8.87;6.60;;;13.50;85.60;;;;;;5066917;28;20826;-75
2023/07/26 04:12:25;;;;;;;11.83;6.90;;;13.60;85.30;;;;;;5066052;28;20458;-73
2023/07/26 04:14:51;;;;;;;10.63;6.53;;;13.60;85.30;;;;;;5071562;28;20191;-73
2023/07/26 04:17:17;;;;;;;11.53;6.60;;;13.50;85.00;;;;;;5071512;28;20658;-74
2023/07/26 04:19:43;;;;;;;10.00;6.43;;;13.60;85.20;;;;;;5069023;28;20654;-74
2023/07/26 04:22:08;;;;;;;9.63;6.23;;;13.70;84.90;;;;;;5069178;28;20445;-74
2023/07/26 04:24:34;;;;;;;13.20;6.40;;;13.70;84.70;;;;;;5071379;28;20191;-74
2023/07/26 04:27:00;;;;;;;8.10;5.90;;;13.70;84.10;;;;;;5072027;28;20267;-75
2023/07/26 04:29:25;;;;;;;9.03;5.70;;;13.70;83.80;;;;;;5067446;28;20468;-75
2023/07/26 04:31:51;;;;;;;9.67;6.57;;;13.70;83.40;;;;;;5064545;28;20298;-74
2023/07/26 04:34:17;;;;;;;7.33;5.40;;;13.70;83.40;;;;;;5068925;28;20235;-74
2023/07/26 04:36:43;;;;;;;10.70;6.47;;;13.80;83.60;;;;;;5073788;28;20578;-74
2023/07/26 04:39:09;;;;;;;10.63;6.30;;;13.80;83.40;;;;;;5067973;28;20896;-73
2023/07/26 04:41:34;;;;;;;11.90;5.73;;;13.80;83.30;;;;;;5070049;28;20294;-74
2023/07/26 04:44:00;;;;;;;8.20;6.30;;;13.90;82.80;;;;;;5074826;28;20261;-74
2023/07/26 04:46:25;;;;;;;9.63;6.83;;;14.00;82.50;;;;;;5066468;28;20816;-74
2023/07/26 04:48:51;;;;;;;8.90;6.43;;;14.00;81.90;;;;;;5070079;28;20226;-74
2023/07/26 04:51:17;;;;;;;10.90;6.40;;;14.00;82.10;;;;;;5063374;28;20211;-74
2023/07/26 04:53:43;;;;;;;13.53;6.70;;;14.10;82.20;;;;;;5063183;28;20303;-74
2023/07/26 04:56:09;;;;;;;10.83;6.20;;;14.10;82.20;;;;;;5062130;28;20550;-74
2023/07/26 04:58:35;;;;;;;9.23;6.40;;;14.20;81.50;;;;;;5072665;28;20237;-75
2023/07/26 05:01:01;;;;;;;8.70;5.73;;;14.20;81.20;;;;;;5068700;28;20461;-75
2023/07/26 05:03:26;;;;;;;10.60;6.53;;;14.20;81.10;;;;;;5074588;28;20183;-74
2023/07/26 05:05:52;;;;;;;11.80;6.30;;;14.20;81.20;;;;;;5074222;28;20274;-75
2023/07/26 05:08:18;;;;;;;10.20;6.70;;;14.30;81.40;;;;;;5075553;28;20968;-74
2023/07/26 05:10:50;;;;;;;12.70;6.30;;;14.30;81.20;;;;;;5065335;28;20254;-72
2023/07/26 05:13:15;;;;;;;8.93;5.90;;;14.30;80.60;;;;;;5074644;28;20465;-75
2023/07/26 05:15:41;;;;;;;10.03;6.57;;;14.20;80.20;;;;;;5075177;28;20426;-73
2023/07/26 05:18:06;;;;;;;10.23;6.60;;;14.20;80.80;;;;;;5073698;28;20199;-74
2023/07/26 05:20:32;;;;;;;11.37;6.53;;;14.10;80.90;;;;;;5071947;28;20863;-74
2023/07/26 05:22:58;;;;;;;9.07;6.30;;;14.10;81.10;;;;;;5072777;28;20198;-74
2023/07/26 05:25:23;;;;;;;9.83;6.63;;;14.20;81.20;;;;;;5074569;28;20241;-73
2023/07/26 05:27:49;;;;;;;12.63;5.70;;;14.20;80.60;;;;;;5074721;28;20219;-74
2023/07/26 05:30:17;;;;;;;11.50;7.17;;;14.20;80.60;;;;;;5065309;28;20211;-75
2023/07/26 05:32:43;;;;;;;12.07;6.00;;;14.20;80.80;;;;;;5071464;28;20277;-74
2023/07/26 05:35:11;;;;;;;9.50;6.13;;;14.10;80.50;;;;;;5070660;28;20426;-73
2023/07/26 05:37:37;;;;;;;10.23;6.77;;;14.10;80.50;;;;;;5074788;28;20525;-74
2023/07/26 05:40:05;;;;;;;10.63;6.73;;;14.10;80.80;;;;;;5077424;28;20487;-74
2023/07/26 05:42:31;;;;;;;14.00;7.00;;;14.10;80.90;;;;;;5072774;28;20418;-75
2023/07/26 05:44:57;;;;;;;16.63;6.40;;;14.20;80.60;;;;;;5075438;28;20797;-75
2023/07/26 05:47:22;;;;;;;13.30;6.60;;;14.20;80.60;;;;;;5074126;28;20430;-73
2023/07/26 05:49:48;;;;;;;11.27;6.63;;;14.20;80.30;;;;;;5072275;28;20192;-73
2023/07/26 05:52:14;;;;;;;9.80;6.50;;;14.30;80.20;;;;;;5067504;28;20194;-73
2023/07/26 05:54:39;;;;;;;12.60;6.80;;;14.20;80.60;;;;;;5071939;28;20690;-73
2023/07/26 05:57:05;;;;;;;19.90;6.93;;;14.20;80.60;;;;;;5075334;28;20240;-75
2023/07/26 05:59:31;;;;;;;9.47;6.57;;;14.20;80.20;;;;;;5069522;28;20401;-73
2023/07/26 06:01:58;;;;;;;10.40;7.67;;;14.20;80.90;;;;;;5069173;28;20465;-73
2023/07/26 06:04:24;;;;;;;10.67;6.60;;;14.40;80.80;;;;;;5074995;28;20203;-75
2023/07/26 06:06:49;;;;;;;9.93;7.20;;;14.40;80.90;;;;;;5072051;28;20441;-73
2023/07/26 06:09:15;;;;;;;10.57;6.53;;;14.50;80.20;;;;;;5076389;28;20439;-75
2023/07/26 06:11:42;;;;;;;11.50;7.83;;;14.70;80.00;;;;;;5072079;28;21016;-75
2023/07/26 06:14:08;;;;;;;16.23;6.77;;;14.80;78.90;;;;;;5074607;28;20779;-76
2023/07/26 06:16:33;;;;;;;12.50;6.53;;;14.80;78.90;;;;;;5083685;28;20426;-77
2023/07/26 06:18:59;;;;;;;14.93;7.00;;;14.90;78.70;;;;;;5078643;28;20440;-77
2023/07/26 06:21:25;;;;;;;9.03;5.97;;;14.90;78.40;;;;;;5079194;28;20208;-77
2023/07/26 06:23:50;;;;;;;10.37;6.53;;;14.80;78.40;;;;;;5078596;28;20862;-76
2023/07/26 06:26:16;;;;;;;10.00;6.53;;;14.80;79.20;;;;;;5069844;28;20189;-75
2023/07/26 06:28:42;;;;;;;11.20;6.23;;;14.80;79.20;;;;;;5071624;28;20245;-75
2023/07/26 06:31:08;;;;;;;10.37;5.93;;;14.90;78.60;;;;;;5081071;28;20204;-75
2023/07/26 06:33:34;;;;;;;9.97;6.50;;;14.90;77.40;;;;;;5073696;28;20481;-76
2023/07/26 06:35:59;;;;;;;11.60;6.20;;;15.10;77.70;;;;;;5071838;28;20245;-73
2023/07/26 06:38:25;;;;;;;7.70;6.10;;;15.10;77.80;;;;;;5052941;28;20628;-75
2023/07/26 06:40:51;;;;;;;13.10;6.20;;;15.10;77.70;;;;;;5069729;28;20222;-75
2023/07/26 06:43:16;;;;;;;8.00;6.63;;;15.20;77.60;;;;;;5073016;28;20669;-76
2023/07/26 06:45:46;;;;;;;8.47;5.63;;;15.20;77.00;;;;;;5073767;28;20184;-78
2023/07/26 06:48:12;;;;;;;7.63;6.43;;;15.10;76.80;;;;;;5066905;28;20269;-76
2023/07/26 06:50:39;;;;;;;9.80;6.80;;;15.10;76.70;;;;;;5066808;28;20451;-76
2023/07/26 06:53:05;;;;;;;7.30;5.23;;;15.20;76.70;;;;;;5072034;28;20578;-76
2023/07/26 06:55:33;;;;;;;9.40;5.33;;;15.20;76.10;;;;;;5071594;28;21007;-77
2023/07/26 06:57:59;;;;;;;9.47;6.00;;;15.20;74.80;;;;;;5073421;28;20237;-77
2023/07/26 07:00:25;;;;;;;10.17;5.77;;;15.30;76.20;;;;;;5066407;28;20996;-79
2023/07/26 07:03:01;;;;;;;11.13;5.80;;;15.30;75.80;;;;;;5070153;28;20191;-77
2023/07/26 07:05:28;;;;;;;8.30;5.80;;;15.40;75.70;;;;;;5073664;28;20646;-77
2023/07/26 07:07:54;;;;;;;8.53;5.97;;;15.50;76.10;;;;;;5074961;28;20916;-77
2023/07/26 07:10:21;;;;;;;9.40;5.90;;;15.60;75.40;;;;;;5063905;28;20474;-78
2023/07/26 07:12:46;;;;;;;8.70;6.07;;;15.60;76.10;;;;;;5072510;28;20740;-76
2023/07/26 07:15:13;;;;;;;9.57;6.10;;;15.60;76.40;;;;;;5073714;28;20466;-76
2023/07/26 07:17:39;;;;;;;10.23;6.10;;;15.60;76.80;;;;;;5073396;28;20275;-77
2023/07/26 07:20:07;;;;;;;8.43;6.00;;;15.60;77.00;;;;;;5062256;28;20460;-76
2023/07/26 07:22:36;;;;;;;8.40;6.90;;;15.40;77.60;;;;;;5069238;28;20447;-76
2023/07/26 07:25:02;;;;;;;10.00;5.90;;;15.30;78.30;;;;;;5072506;28;20422;-76
2023/07/26 07:27:28;;;;;;;10.77;6.47;;;15.30;78.30;;;;;;5069083;28;20484;-76
2023/07/26 07:29:53;;;;;;;9.60;6.50;;;15.20;78.40;;;;;;5066620;28;20432;-77
2023/07/26 07:32:19;;;;;;;11.00;6.90;;;15.20;78.40;;;;;;5068736;28;20330;-77
2023/07/26 07:34:46;;;;;;;9.57;7.20;;;15.20;79.20;;;;;;5073218;28;20207;-79
2023/07/26 07:37:12;;;;;;;15.60;7.70;;;15.10;79.70;;;;;;5076947;28;20456;-76
2023/07/26 07:39:38;;;;;;;10.27;7.00;;;14.90;79.70;;;;;;5073024;28;20438;-78
2023/07/26 07:42:04;;;;;;;10.63;6.93;;;14.90;80.80;;;;;;5068594;28;20758;-78
2023/07/26 07:44:29;;;;;;;9.17;6.20;;;14.90;80.90;;;;;;5070206;28;20942;-78
2023/07/26 07:46:55;;;;;;;10.67;7.30;;;15.00;80.90;;;;;;5071256;28;20422;-78
2023/07/26 07:49:21;;;;;;;11.60;8.00;;;15.10;81.50;;;;;;5070322;28;20704;-75
2023/07/26 07:51:47;;;;;;;8.70;6.40;;;15.10;81.50;;;;;;5063070;28;20538;-77
2023/07/26 07:54:13;;;;;;;12.90;6.97;;;15.10;81.70;;;;;;5064314;28;20223;-76
2023/07/26 07:56:39;;;;;;;10.73;7.00;;;15.10;81.20;;;;;;5065381;28;20273;-77
2023/07/26 07:59:04;;;;;;;8.53;6.87;;;15.00;81.50;;;;;;5071364;28;21018;-79
2023/07/26 08:01:30;;;;;;;11.53;6.67;;;15.00;81.80;;;;;;5072995;28;20200;-76
2023/07/26 08:03:59;;;;;;;8.50;6.30;;;14.90;79.90;;;;;;5075609;28;20187;-78
2023/07/26 08:06:25;;;;;;;10.23;6.87;;;15.00;80.60;;;;;;5056819;28;20430;-77
2023/07/26 08:08:51;;;;;;;10.00;6.60;;;14.90;81.20;;;;;;5071412;28;20438;-76
2023/07/26 08:11:16;;;;;;;8.17;6.30;;;15.00;81.70;;;;;;5068330;28;20773;-75
2023/07/26 08:13:43;;;;;;;11.03;6.73;;;15.00;81.80;;;;;;5067912;28;20211;-74
2023/07/26 08:16:08;;;;;;;10.10;7.00;;;15.00;81.70;;;;;;5072336;28;20809;-76
2023/07/26 08:18:34;;;;;;;9.23;7.00;;;15.10;81.50;;;;;;5069528;28;20437;-76
2023/07/26 08:21:00;;;;;;;7.60;6.27;;;15.10;80.90;;;;;;5063449;28;20222;-76
2023/07/26 08:23:26;;;;;;;13.80;6.00;;;15.10;80.90;;;;;;5066923;28;20206;-76
2023/07/26 08:25:52;;;;;;;7.80;5.70;;;15.00;79.90;;;;;;5070742;28;20301;-74
2023/07/26 08:28:17;;;;;;;10.13;5.60;;;14.90;79.60;;;;;;5069370;28;20426;-75
2023/07/26 08:30:43;;;;;;;8.07;5.70;;;14.90;79.70;;;;;;5069391;28;20214;-75
2023/07/26 08:33:09;;;;;;;7.60;5.57;;;14.90;79.90;;;;;;5064855;28;20216;-75
2023/07/26 08:35:34;;;;;;;8.67;5.77;;;15.00;79.90;;;;;;5069651;28;20191;-75
2023/07/26 08:38:00;;;;;;;6.40;5.20;;;15.00;79.50;;;;;;5065213;28;20260;-76
2023/07/26 08:40:26;;;;;;;8.60;5.43;;;15.10;78.70;;;;;;5063136;28;20204;-75
2023/07/26 08:42:54;;;;;;;7.83;5.40;;;15.10;78.40;;;;;;5062755;28;20247;-74
2023/07/26 08:45:20;;;;;;;7.93;4.93;;;15.20;78.70;;;;;;5071060;28;20510;-75
2023/07/26 08:47:46;;;;;;;8.13;3.57;;;15.20;76.50;;;;;;5070912;28;20502;-75
2023/07/26 08:50:12;;;;;;;3.90;3.40;;;15.20;76.20;;;;;;5064418;28;20891;-75
2023/07/26 08:52:38;;;;;;;4.90;3.50;;;15.30;75.40;;;;;;5068339;28;21115;-75
2023/07/26 08:55:04;;;;;;;4.47;3.70;;;15.30;75.50;;;;;;5070037;28;20187;-76
2023/07/26 08:57:30;;;;;;;4.43;3.07;;;15.50;74.90;;;;;;5070221;28;20192;-74
2023/07/26 08:59:55;;;;;;;3.53;2.90;;;15.50;73.70;;;;;;5068479;28;20461;-77
2023/07/26 09:02:23;;;;;;;4.00;2.23;;;15.70;74.50;;;;;;5070407;28;20191;-76
2023/07/26 09:04:49;;;;;;;2.83;2.47;;;15.90;72.90;;;;;;5073359;28;20184;-75
2023/07/26 09:07:14;;;;;;;3.50;1.90;;;15.80;71.30;;;;;;5074163;28;20483;-75
2023/07/26 09:09:40;;;;;;;3.40;2.60;;;15.70;71.70;;;;;;5075744;28;20191;-75
2023/07/26 09:12:07;;;;;;;3.90;2.10;;;15.60;70.80;;;;;;5068595;28;20175;-74
2023/07/26 09:14:34;;;;;;;2.20;1.70;;;15.60;70.80;;;;;;5074733;28;20474;-73
2023/07/26 09:17:04;;;;;;;3.20;2.23;;;15.70;71.10;;;;;;5077208;28;20480;-75
2023/07/26 09:19:31;;;;;;;2.20;1.70;;;15.80;71.10;;;;;;5077740;28;20513;-74
2023/07/26 09:22:01;;;;;;;1.80;1.57;;;15.90;71.10;;;;;;5073249;28;20460;-75
2023/07/26 09:24:39;;;;;;;4.20;1.70;;;15.80;71.30;;;;;;5073874;28;20422;-74
2023/07/26 09:27:12;;;;;;;2.03;1.57;;;15.90;71.80;;;;;;5076140;28;20442;-75
2023/07/26 09:29:39;;;;;;;2.60;1.70;;;15.80;72.10;;;;;;5074714;28;20451;-75
2023/07/26 09:32:05;;;;;;;2.50;1.90;;;15.70;72.00;;;;;;5072791;28;20430;-74
2023/07/26 09:34:32;;;;;;;2.33;1.57;;;15.60;72.90;;;;;;5075087;28;20481;-75
2023/07/26 09:36:58;;;;;;;1.70;1.60;;;15.50;73.90;;;;;;5073080;28;20484;-75
2023/07/26 09:39:25;;;;;;;3.07;1.80;;;15.30;75.80;;;;;;5074413;28;20434;-75
2023/07/26 09:42:02;;;;;;;2.57;1.73;;;15.10;76.20;;;;;;5067061;28;20480;-75
2023/07/26 09:44:28;;;;;;;4.73;2.30;;;15.00;77.40;;;;;;5072105;28;20513;-75
2023/07/26 09:46:56;;;;;;;2.77;1.90;;;15.10;78.30;;;;;;5075929;28;20429;-75
2023/07/26 09:49:24;;;;;;;4.70;1.70;;;15.10;77.70;;;;;;5077162;28;20211;-74
2023/07/26 09:51:54;;;;;;;3.17;2.20;;;14.90;77.40;;;;;;5071449;28;20458;-74
2023/07/26 09:54:21;;;;;;;3.53;1.90;;;14.80;78.00;;;;;;5072722;28;20477;-75
2023/07/26 09:56:47;;;;;;;2.63;2.13;;;14.80;78.00;;;;;;5075059;28;20445;-74
2023/07/26 09:59:14;;;;;;;3.00;2.40;;;15.00;77.60;;;;;;5076175;28;20441;-74
2023/07/26 10:01:42;;;;;;;2.87;1.80;;;15.10;76.80;;;;;;5068265;28;20497;-74
2023/07/26 10:04:15;;;;;;;3.17;2.37;;;15.30;76.20;;;;;;5074083;28;20916;-73
2023/07/26 10:06:42;;;;;;;3.67;2.13;;;15.20;76.10;;;;;;5072025;28;20580;-74
2023/07/26 10:09:12;;;;;;;3.23;2.30;;;15.50;76.50;;;;;;5079342;28;20457;-73
2023/07/26 10:11:41;;;;;;;3.50;2.23;;;15.60;74.50;;;;;;5075382;28;20458;-75
2023/07/26 10:14:08;;;;;;;4.53;2.73;;;15.70;75.50;;;;;;5071409;28;20476;-74
2023/07/26 10:16:35;;;;;;;3.90;2.57;;;16.00;74.20;;;;;;5076407;28;20508;-74
2023/07/26 10:19:03;;;;;;;5.40;2.50;;;16.00;74.60;;;;;;5068552;28;20475;-78
2023/07/26 10:21:30;;;;;;;3.80;2.53;;;16.00;73.50;;;;;;5068258;28;20470;-77
2023/07/26 10:24:03;;;;;;;4.27;2.60;;;16.00;74.00;;;;;;5075209;28;20594;-76
2023/07/26 10:26:32;;;;;;;5.70;2.50;;;16.10;73.70;;;;;;5079271;28;20939;-75
2023/07/26 10:28:59;;;;;;;4.80;2.47;;;16.20;72.40;;;;;;5072808;28;20796;-76
2023/07/26 10:31:29;;;;;;;4.00;2.23;;;16.10;73.20;;;;;;5053464;28;20461;-77
2023/07/26 10:33:56;;;;;;;2.93;2.20;;;16.10;72.70;;;;;;5071424;28;20477;-76
2023/07/26 10:36:30;;;;;;;3.60;2.00;;;15.90;73.20;;;;;;5070139;28;20430;-75
2023/07/26 10:38:56;;;;;;;4.40;2.10;;;15.80;72.60;;;;;;5069667;28;20434;-74
2023/07/26 10:41:27;;;;;;;3.57;1.93;;;15.90;72.90;;;;;;5068967;28;20480;-76
2023/07/26 10:44:08;;;;;;;3.50;2.30;;;16.10;72.60;;;;;;5070841;28;20195;-74
2023/07/26 10:47:00;;;;;;;4.43;2.10;;;16.40;70.40;;;;;;5072628;28;20959;-76
2023/07/26 10:49:28;;;;;;;5.80;2.57;;;16.60;69.90;;;;;;5072749;28;20826;-76
2023/07/26 10:52:02;;;;;;;23.17;3.03;;;16.80;70.50;;;;;;5066427;28;20460;-76
2023/07/26 10:54:50;;;;;;;3.23;2.50;;;17.20;68.90;;;;;;5073831;28;20516;-76
2023/07/26 10:57:28;;;;;;;6.60;3.00;;;17.20;68.50;;;;;;5073311;28;20449;-75
2023/07/26 10:59:59;;;;;;;4.73;2.33;;;17.10;67.60;;;;;;5071143;28;20435;-77
2023/07/26 11:02:38;;;;;;;4.23;2.57;;;17.00;67.70;;;;;;5068514;28;20423;-76
2023/07/26 11:05:09;;;;;;;4.07;2.57;;;17.20;67.70;;;;;;5073417;28;20425;-75
2023/07/26 11:08:01;;;;;;;3.43;2.73;;;17.40;66.70;;;;;;5072965;28;20420;-75
2023/07/26 11:10:31;;;;;;;5.40;2.73;;;17.60;66.30;;;;;;5059543;28;20512;-75
2023/07/26 11:13:07;;;;;;;6.43;2.87;;;17.80;66.30;;;;;;5073390;28;21085;-77
2023/07/26 11:15:34;;;;;;;5.13;2.50;;;17.70;65.80;;;;;;5073404;28;20429;-75
2023/07/26 11:18:00;;;;;;;3.70;2.30;;;17.90;66.60;;;;;;5072623;28;20453;-75
2023/07/26 11:20:26;;;;;;;3.50;2.60;;;17.90;65.60;;;;;;5066447;28;20462;-76
2023/07/26 11:22:52;;;;;;;3.07;2.50;;;17.70;66.70;;;;;;5069746;28;20347;-76
2023/07/26 11:25:19;;;;;;;2.17;2.00;;;17.90;66.30;;;;;;5071523;28;20259;-75
2023/07/26 11:27:46;;;;;;;3.23;2.50;;;18.00;66.30;;;;;;5075827;28;20512;-76
2023/07/26 11:30:17;;;;;;;4.17;3.13;;;17.90;65.00;;;;;;5071409;28;20463;-76
2023/07/26 11:32:44;;;;;;;4.00;2.77;;;18.10;65.60;;;;;;5071997;28;20464;-75
2023/07/26 11:35:10;;;;;;;2.97;2.30;;;18.30;65.10;;;;;;5064322;28;20453;-76
2023/07/26 11:37:36;;;;;;;9.43;2.60;;;18.30;64.50;;;;;;5070343;28;20531;-76
2023/07/26 11:40:06;;;;;;;2.80;2.47;;;18.30;64.20;;;;;;5064008;28;20254;-75
2023/07/26 11:42:33;;;;;;;3.40;2.67;;;18.50;64.40;;;;;;5070522;28;20190;-76
2023/07/26 11:45:05;;;;;;;3.30;2.27;;;18.90;64.50;;;;;;5069304;28;20441;-76
2023/07/26 11:47:37;;;;;;;3.27;2.60;;;19.40;63.80;;;;;;5072333;28;20544;-75
2023/07/26 11:50:03;;;;;;;4.57;2.87;;;19.10;64.70;;;;;;5063577;28;20523;-75
2023/07/26 11:52:29;;;;;;;4.33;2.60;;;18.60;64.70;;;;;;5074137;28;20434;-77
2023/07/26 11:55:06;;;;;;;3.30;2.30;;;18.70;65.70;;;;;;5073970;28;20530;-76
2023/07/26 11:57:32;;;;;;;4.77;2.80;;;19.00;65.00;;;;;;5074278;28;20422;-74
2023/07/26 12:00:01;;;;;;;3.27;2.20;;;19.10;63.80;;;;;;5066680;28;20487;-75
2023/07/26 12:02:27;;;;;;;5.83;2.97;;;18.70;64.10;;;;;;5072623;28;20457;-74
2023/07/26 12:05:19;;;;;;;4.57;2.67;;;18.40;65.00;;;;;;5071543;28;20461;-74
2023/07/26 12:07:49;;;;;;;4.63;2.67;;;18.40;65.10;;;;;;5070472;28;20446;-76
2023/07/26 12:10:31;;;;;;;6.00;3.40;;;18.70;64.50;;;;;;5071294;28;20528;-77
2023/07/26 12:12:58;;;;;;;4.30;2.93;;;18.60;62.90;;;;;;5073847;28;20510;-77
2023/07/26 12:15:24;;;;;;;10.57;3.23;;;19.00;63.20;;;;;;5076301;28;20463;-78
2023/07/26 12:17:59;;;;;;;4.33;2.73;;;19.00;62.80;;;;;;5080123;28;20426;-76
2023/07/26 12:20:26;;;;;;;5.50;3.17;;;19.90;62.50;;;;;;5059447;28;21023;-76
2023/07/26 12:22:53;;;;;;;6.50;3.17;;;20.50;60.40;;;;;;5067278;28;20458;-76
2023/07/26 12:25:20;;;;;;;5.70;3.00;;;20.40;58.90;;;;;;5070412;28;20430;-76
2023/07/26 12:27:52;;;;;;;4.57;3.50;;;20.30;59.70;;;;;;5071344;28;20811;-75
2023/07/26 12:30:18;;;;;;;3.43;2.70;;;20.40;59.60;;;;;;5066329;28;20474;-77
2023/07/26 12:32:45;;;;;;;5.03;2.83;;;20.30;60.70;;;;;;5070254;28;20959;-76
2023/07/26 12:35:20;;;;;;;4.97;2.63;;;20.10;60.10;;;;;;5071766;28;20452;-75
2023/07/26 12:37:49;;;;;;;7.83;4.20;;;20.00;59.60;;;;;;5073219;28;20187;-77
2023/07/26 12:40:16;;;;;;;7.20;4.23;;;19.90;59.30;;;;;;5065566;28;20585;-77